sensor_id;sensor_type;location;lat;lon;timestamp;P1;durP1;ratioP1;P2;durP2;ratioP2
12112;SDS011;6120;52.250;8.478;2024-02-26T00:00:26;3.38;;;1.65;;
12112;SDS011;6120;52.250;8.478;2024-02-26T00:02:53;2.95;;;1.40;;
12112;SDS011;6120;52.250;8.478;2024-02-26T00:05:20;3.17;;;1.60;;
12112;SDS011;6120;52.250;8.478;2024-02-26T00:07:46;3.78;;;1.60;;
12112;SDS011;6120;52.250;8.478;2024-02-26T00:10:13;2.38;;;1.65;;
12112;SDS011;6120;52.250;8.478;2024-02-26T00:12:40;2.83;;;1.63;;
12112;SDS011;6120;52.250;8.478;2024-02-26T00:15:08;2.38;;;1.35;;
12112;SDS011;6120;52.250;8.478;2024-02-26T00:17:35;3.38;;;1.42;;
12112;SDS011;6120;52.250;8.478;2024-02-26T00:20:02;3.55;;;1.40;;
12112;SDS011;6120;52.250;8.478;2024-02-26T00:24:57;3.08;;;1.65;;
12112;SDS011;6120;52.250;8.478;2024-02-26T00:27:24;2.17;;;1.35;;
12112;SDS011;6120;52.250;8.478;2024-02-26T00:29:51;2.28;;;1.40;;
12112;SDS011;6120;52.250;8.478;2024-02-26T00:32:17;2.42;;;1.35;;
12112;SDS011;6120;52.250;8.478;2024-02-26T00:34:44;2.65;;;1.40;;
12112;SDS011;6120;52.250;8.478;2024-02-26T00:37:11;2.47;;;1.40;;
12112;SDS011;6120;52.250;8.478;2024-02-26T00:39:38;2.42;;;1.15;;
12112;SDS011;6120;52.250;8.478;2024-02-26T00:42:04;2.20;;;1.20;;
12112;SDS011;6120;52.250;8.478;2024-02-26T00:44:31;2.70;;;1.25;;
12112;SDS011;6120;52.250;8.478;2024-02-26T00:46:58;1.90;;;1.25;;
12112;SDS011;6120;52.250;8.478;2024-02-26T00:49:24;2.22;;;1.20;;
12112;SDS011;6120;52.250;8.478;2024-02-26T00:51:51;2.58;;;1.15;;
12112;SDS011;6120;52.250;8.478;2024-02-26T00:54:18;3.33;;;1.40;;
12112;SDS011;6120;52.250;8.478;2024-02-26T00:56:45;2.53;;;1.52;;
12112;SDS011;6120;52.250;8.478;2024-02-26T00:59:11;1.55;;;1.00;;
12112;SDS011;6120;52.250;8.478;2024-02-26T01:01:38;1.90;;;1.20;;
12112;SDS011;6120;52.250;8.478;2024-02-26T01:04:05;1.90;;;1.25;;
12112;SDS011;6120;52.250;8.478;2024-02-26T01:06:31;2.97;;;1.30;;
12112;SDS011;6120;52.250;8.478;2024-02-26T01:08:58;2.85;;;1.33;;
12112;SDS011;6120;52.250;8.478;2024-02-26T01:11:25;1.92;;;1.20;;
12112;SDS011;6120;52.250;8.478;2024-02-26T01:13:52;2.00;;;1.20;;
12112;SDS011;6120;52.250;8.478;2024-02-26T01:16:23;2.67;;;1.30;;
12112;SDS011;6120;52.250;8.478;2024-02-26T01:18:50;2.83;;;1.65;;
12112;SDS011;6120;52.250;8.478;2024-02-26T01:21:17;1.88;;;1.00;;
12112;SDS011;6120;52.250;8.478;2024-02-26T01:23:44;2.38;;;1.10;;
12112;SDS011;6120;52.250;8.478;2024-02-26T01:26:11;1.88;;;0.90;;
12112;SDS011;6120;52.250;8.478;2024-02-26T01:28:37;1.80;;;1.00;;
12112;SDS011;6120;52.250;8.478;2024-02-26T01:31:04;2.22;;;1.10;;
12112;SDS011;6120;52.250;8.478;2024-02-26T01:33:33;1.42;;;0.90;;
12112;SDS011;6120;52.250;8.478;2024-02-26T01:36:00;2.10;;;0.95;;
12112;SDS011;6120;52.250;8.478;2024-02-26T01:38:27;2.92;;;0.98;;
12112;SDS011;6120;52.250;8.478;2024-02-26T01:40:54;1.27;;;0.80;;
12112;SDS011;6120;52.250;8.478;2024-02-26T01:43:21;1.42;;;0.70;;
12112;SDS011;6120;52.250;8.478;2024-02-26T01:45:47;2.20;;;0.80;;
12112;SDS011;6120;52.250;8.478;2024-02-26T01:48:14;1.40;;;0.88;;
12112;SDS011;6120;52.250;8.478;2024-02-26T01:50:41;2.33;;;0.90;;
12112;SDS011;6120;52.250;8.478;2024-02-26T01:53:08;1.15;;;0.82;;
12112;SDS011;6120;52.250;8.478;2024-02-26T01:55:35;2.92;;;0.90;;
12112;SDS011;6120;52.250;8.478;2024-02-26T01:58:02;1.30;;;1.02;;
12112;SDS011;6120;52.250;8.478;2024-02-26T02:00:29;1.98;;;1.10;;
12112;SDS011;6120;52.250;8.478;2024-02-26T02:02:56;2.97;;;1.10;;
12112;SDS011;6120;52.250;8.478;2024-02-26T02:05:23;1.95;;;1.10;;
12112;SDS011;6120;52.250;8.478;2024-02-26T02:07:51;1.80;;;0.90;;
12112;SDS011;6120;52.250;8.478;2024-02-26T02:10:19;2.17;;;1.10;;
12112;SDS011;6120;52.250;8.478;2024-02-26T02:12:49;1.98;;;0.90;;
12112;SDS011;6120;52.250;8.478;2024-02-26T02:15:16;1.70;;;0.90;;
12112;SDS011;6120;52.250;8.478;2024-02-26T02:17:44;1.65;;;0.98;;
12112;SDS011;6120;52.250;8.478;2024-02-26T02:20:17;2.08;;;1.00;;
12112;SDS011;6120;52.250;8.478;2024-02-26T02:22:45;1.10;;;0.80;;
12112;SDS011;6120;52.250;8.478;2024-02-26T02:25:12;3.13;;;1.00;;
12112;SDS011;6120;52.250;8.478;2024-02-26T02:27:39;2.42;;;0.98;;
12112;SDS011;6120;52.250;8.478;2024-02-26T02:30:07;1.10;;;0.67;;
12112;SDS011;6120;52.250;8.478;2024-02-26T02:32:35;0.98;;;0.85;;
12112;SDS011;6120;52.250;8.478;2024-02-26T02:35:03;2.28;;;1.08;;
12112;SDS011;6120;52.250;8.478;2024-02-26T02:37:30;1.83;;;0.90;;
12112;SDS011;6120;52.250;8.478;2024-02-26T02:39:57;2.08;;;1.00;;
12112;SDS011;6120;52.250;8.478;2024-02-26T02:42:24;1.50;;;1.00;;
12112;SDS011;6120;52.250;8.478;2024-02-26T02:44:51;2.67;;;1.00;;
12112;SDS011;6120;52.250;8.478;2024-02-26T02:47:17;1.88;;;0.98;;
12112;SDS011;6120;52.250;8.478;2024-02-26T02:49:44;2.85;;;1.00;;
12112;SDS011;6120;52.250;8.478;2024-02-26T02:52:11;1.95;;;1.08;;
12112;SDS011;6120;52.250;8.478;2024-02-26T02:54:38;2.22;;;1.10;;
12112;SDS011;6120;52.250;8.478;2024-02-26T02:57:08;1.88;;;1.10;;
12112;SDS011;6120;52.250;8.478;2024-02-26T02:59:36;1.73;;;1.10;;
12112;SDS011;6120;52.250;8.478;2024-02-26T03:02:03;3.00;;;0.93;;
12112;SDS011;6120;52.250;8.478;2024-02-26T03:04:30;1.75;;;1.10;;
12112;SDS011;6120;52.250;8.478;2024-02-26T03:06:57;2.72;;;1.20;;
12112;SDS011;6120;52.250;8.478;2024-02-26T03:09:24;2.35;;;1.10;;
12112;SDS011;6120;52.250;8.478;2024-02-26T03:11:51;3.40;;;1.40;;
12112;SDS011;6120;52.250;8.478;2024-02-26T03:14:17;1.65;;;1.00;;
12112;SDS011;6120;52.250;8.478;2024-02-26T03:16:44;2.95;;;1.00;;
12112;SDS011;6120;52.250;8.478;2024-02-26T03:19:13;1.88;;;1.05;;
12112;SDS011;6120;52.250;8.478;2024-02-26T03:21:41;2.05;;;1.05;;
12112;SDS011;6120;52.250;8.478;2024-02-26T03:24:07;1.77;;;1.02;;
12112;SDS011;6120;52.250;8.478;2024-02-26T03:26:36;2.42;;;1.02;;
12112;SDS011;6120;52.250;8.478;2024-02-26T03:29:04;1.65;;;1.00;;
12112;SDS011;6120;52.250;8.478;2024-02-26T03:31:31;2.40;;;1.00;;
12112;SDS011;6120;52.250;8.478;2024-02-26T03:33:58;1.90;;;1.00;;
12112;SDS011;6120;52.250;8.478;2024-02-26T03:36:25;2.15;;;1.10;;
12112;SDS011;6120;52.250;8.478;2024-02-26T03:38:52;2.97;;;1.30;;
12112;SDS011;6120;52.250;8.478;2024-02-26T03:41:19;2.65;;;1.30;;
12112;SDS011;6120;52.250;8.478;2024-02-26T03:43:45;2.70;;;1.50;;
12112;SDS011;6120;52.250;8.478;2024-02-26T03:46:12;2.55;;;1.33;;
12112;SDS011;6120;52.250;8.478;2024-02-26T03:48:40;2.97;;;1.20;;
12112;SDS011;6120;52.250;8.478;2024-02-26T03:51:11;2.72;;;1.30;;
12112;SDS011;6120;52.250;8.478;2024-02-26T03:53:37;1.98;;;1.10;;
12112;SDS011;6120;52.250;8.478;2024-02-26T03:56:05;2.40;;;1.27;;
12112;SDS011;6120;52.250;8.478;2024-02-26T03:58:32;2.83;;;1.30;;
12112;SDS011;6120;52.250;8.478;2024-02-26T04:00:59;2.55;;;1.33;;
12112;SDS011;6120;52.250;8.478;2024-02-26T04:03:27;2.45;;;1.25;;
12112;SDS011;6120;52.250;8.478;2024-02-26T04:05:53;2.17;;;1.30;;
12112;SDS011;6120;52.250;8.478;2024-02-26T04:08:20;2.75;;;1.55;;
12112;SDS011;6120;52.250;8.478;2024-02-26T04:10:47;2.28;;;1.35;;
12112;SDS011;6120;52.250;8.478;2024-02-26T04:13:14;4.50;;;1.50;;
12112;SDS011;6120;52.250;8.478;2024-02-26T04:15:41;2.65;;;1.38;;
12112;SDS011;6120;52.250;8.478;2024-02-26T04:18:07;2.47;;;1.30;;
12112;SDS011;6120;52.250;8.478;2024-02-26T04:20:35;3.50;;;1.67;;
12112;SDS011;6120;52.250;8.478;2024-02-26T04:23:02;1.95;;;1.45;;
12112;SDS011;6120;52.250;8.478;2024-02-26T04:25:29;3.13;;;1.60;;
12112;SDS011;6120;52.250;8.478;2024-02-26T04:27:56;2.85;;;1.80;;
12112;SDS011;6120;52.250;8.478;2024-02-26T04:30:23;3.42;;;1.80;;
12112;SDS011;6120;52.250;8.478;2024-02-26T04:32:50;2.40;;;1.42;;
12112;SDS011;6120;52.250;8.478;2024-02-26T04:35:17;2.58;;;1.70;;
12112;SDS011;6120;52.250;8.478;2024-02-26T04:37:44;2.97;;;1.80;;
12112;SDS011;6120;52.250;8.478;2024-02-26T04:40:10;3.60;;;1.95;;
12112;SDS011;6120;52.250;8.478;2024-02-26T04:42:37;3.13;;;1.90;;
12112;SDS011;6120;52.250;8.478;2024-02-26T04:45:04;4.13;;;1.98;;
12112;SDS011;6120;52.250;8.478;2024-02-26T04:47:31;3.50;;;2.10;;
12112;SDS011;6120;52.250;8.478;2024-02-26T04:49:58;3.40;;;2.00;;
12112;SDS011;6120;52.250;8.478;2024-02-26T04:52:25;3.42;;;2.00;;
12112;SDS011;6120;52.250;8.478;2024-02-26T04:54:52;3.15;;;2.03;;
12112;SDS011;6120;52.250;8.478;2024-02-26T04:57:18;4.07;;;2.30;;
12112;SDS011;6120;52.250;8.478;2024-02-26T04:59:45;4.35;;;1.90;;
12112;SDS011;6120;52.250;8.478;2024-02-26T05:02:13;4.40;;;2.15;;
12112;SDS011;6120;52.250;8.478;2024-02-26T05:04:40;5.68;;;2.53;;
12112;SDS011;6120;52.250;8.478;2024-02-26T05:07:06;4.72;;;2.28;;
12112;SDS011;6120;52.250;8.478;2024-02-26T05:09:34;3.58;;;2.10;;
12112;SDS011;6120;52.250;8.478;2024-02-26T05:12:00;2.72;;;1.85;;
12112;SDS011;6120;52.250;8.478;2024-02-26T05:14:28;2.95;;;2.05;;
12112;SDS011;6120;52.250;8.478;2024-02-26T05:16:54;4.15;;;2.58;;
12112;SDS011;6120;52.250;8.478;2024-02-26T05:19:22;5.40;;;2.60;;
12112;SDS011;6120;52.250;8.478;2024-02-26T05:21:49;4.63;;;2.97;;
12112;SDS011;6120;52.250;8.478;2024-02-26T05:24:16;3.67;;;2.40;;
12112;SDS011;6120;52.250;8.478;2024-02-26T05:26:45;5.90;;;3.00;;
12112;SDS011;6120;52.250;8.478;2024-02-26T05:29:12;5.28;;;3.30;;
12112;SDS011;6120;52.250;8.478;2024-02-26T05:31:38;6.43;;;3.40;;
12112;SDS011;6120;52.250;8.478;2024-02-26T05:34:06;5.35;;;2.97;;
12112;SDS011;6120;52.250;8.478;2024-02-26T05:36:33;6.55;;;3.40;;
12112;SDS011;6120;52.250;8.478;2024-02-26T05:39:00;7.20;;;3.55;;
12112;SDS011;6120;52.250;8.478;2024-02-26T05:41:27;7.88;;;3.58;;
12112;SDS011;6120;52.250;8.478;2024-02-26T05:43:54;6.10;;;3.20;;
12112;SDS011;6120;52.250;8.478;2024-02-26T05:46:21;5.05;;;3.30;;
12112;SDS011;6120;52.250;8.478;2024-02-26T05:48:52;7.45;;;3.50;;
12112;SDS011;6120;52.250;8.478;2024-02-26T05:51:19;5.80;;;3.60;;
12112;SDS011;6120;52.250;8.478;2024-02-26T05:53:46;9.25;;;4.03;;
12112;SDS011;6120;52.250;8.478;2024-02-26T05:56:14;5.75;;;3.45;;
12112;SDS011;6120;52.250;8.478;2024-02-26T05:58:40;6.97;;;4.00;;
12112;SDS011;6120;52.250;8.478;2024-02-26T06:01:07;7.22;;;4.20;;
12112;SDS011;6120;52.250;8.478;2024-02-26T06:03:34;8.35;;;4.35;;
12112;SDS011;6120;52.250;8.478;2024-02-26T06:06:01;7.97;;;4.50;;
12112;SDS011;6120;52.250;8.478;2024-02-26T06:08:28;6.78;;;3.97;;
12112;SDS011;6120;52.250;8.478;2024-02-26T06:10:55;8.05;;;4.28;;
12112;SDS011;6120;52.250;8.478;2024-02-26T06:13:22;9.98;;;4.80;;
12112;SDS011;6120;52.250;8.478;2024-02-26T06:15:48;9.52;;;4.63;;
12112;SDS011;6120;52.250;8.478;2024-02-26T06:18:15;7.32;;;4.68;;
12112;SDS011;6120;52.250;8.478;2024-02-26T06:20:42;6.00;;;3.90;;
12112;SDS011;6120;52.250;8.478;2024-02-26T06:23:09;9.05;;;4.70;;
12112;SDS011;6120;52.250;8.478;2024-02-26T06:25:36;8.32;;;4.43;;
12112;SDS011;6120;52.250;8.478;2024-02-26T06:28:03;8.32;;;4.80;;
12112;SDS011;6120;52.250;8.478;2024-02-26T06:30:30;8.45;;;4.38;;
12112;SDS011;6120;52.250;8.478;2024-02-26T06:32:56;7.68;;;4.18;;
12112;SDS011;6120;52.250;8.478;2024-02-26T06:35:23;7.97;;;4.55;;
12112;SDS011;6120;52.250;8.478;2024-02-26T06:37:50;8.55;;;4.78;;
12112;SDS011;6120;52.250;8.478;2024-02-26T06:40:19;9.23;;;4.75;;
12112;SDS011;6120;52.250;8.478;2024-02-26T06:42:46;9.88;;;5.05;;
12112;SDS011;6120;52.250;8.478;2024-02-26T06:45:15;8.30;;;3.90;;
12112;SDS011;6120;52.250;8.478;2024-02-26T06:47:42;7.07;;;4.30;;
12112;SDS011;6120;52.250;8.478;2024-02-26T06:50:11;9.27;;;4.47;;
12112;SDS011;6120;52.250;8.478;2024-02-26T06:52:38;9.30;;;4.45;;
12112;SDS011;6120;52.250;8.478;2024-02-26T06:55:05;8.95;;;4.13;;
12112;SDS011;6120;52.250;8.478;2024-02-26T06:57:34;7.22;;;4.10;;
12112;SDS011;6120;52.250;8.478;2024-02-26T07:00:01;7.68;;;3.95;;
12112;SDS011;6120;52.250;8.478;2024-02-26T07:02:30;6.45;;;3.95;;
12112;SDS011;6120;52.250;8.478;2024-02-26T07:04:57;7.40;;;4.68;;
12112;SDS011;6120;52.250;8.478;2024-02-26T07:07:24;10.73;;;4.70;;
12112;SDS011;6120;52.250;8.478;2024-02-26T07:09:51;10.52;;;4.80;;
12112;SDS011;6120;52.250;8.478;2024-02-26T07:12:21;9.05;;;4.18;;
12112;SDS011;6120;52.250;8.478;2024-02-26T07:14:49;6.90;;;4.10;;
12112;SDS011;6120;52.250;8.478;2024-02-26T07:17:16;7.85;;;4.07;;
12112;SDS011;6120;52.250;8.478;2024-02-26T07:19:43;7.18;;;4.18;;
12112;SDS011;6120;52.250;8.478;2024-02-26T07:22:09;6.65;;;3.60;;
12112;SDS011;6120;52.250;8.478;2024-02-26T07:24:36;6.90;;;3.38;;
12112;SDS011;6120;52.250;8.478;2024-02-26T07:27:03;7.55;;;3.80;;
12112;SDS011;6120;52.250;8.478;2024-02-26T07:29:30;7.13;;;3.70;;
12112;SDS011;6120;52.250;8.478;2024-02-26T07:31:57;7.43;;;3.45;;
12112;SDS011;6120;52.250;8.478;2024-02-26T07:34:24;6.38;;;3.55;;
12112;SDS011;6120;52.250;8.478;2024-02-26T07:36:56;6.28;;;3.53;;
12112;SDS011;6120;52.250;8.478;2024-02-26T07:39:23;6.68;;;3.53;;
12112;SDS011;6120;52.250;8.478;2024-02-26T07:41:50;7.78;;;4.15;;
12112;SDS011;6120;52.250;8.478;2024-02-26T07:44:19;5.60;;;3.33;;
12112;SDS011;6120;52.250;8.478;2024-02-26T07:46:46;7.53;;;3.15;;
12112;SDS011;6120;52.250;8.478;2024-02-26T07:49:13;6.07;;;3.72;;
12112;SDS011;6120;52.250;8.478;2024-02-26T07:51:40;5.60;;;3.35;;
12112;SDS011;6120;52.250;8.478;2024-02-26T07:54:07;6.15;;;3.35;;
12112;SDS011;6120;52.250;8.478;2024-02-26T07:56:34;5.93;;;3.53;;
12112;SDS011;6120;52.250;8.478;2024-02-26T07:59:01;6.15;;;3.70;;
12112;SDS011;6120;52.250;8.478;2024-02-26T08:01:28;5.53;;;3.00;;
12112;SDS011;6120;52.250;8.478;2024-02-26T08:03:55;5.50;;;3.53;;
12112;SDS011;6120;52.250;8.478;2024-02-26T08:06:22;4.68;;;3.03;;
12112;SDS011;6120;52.250;8.478;2024-02-26T08:08:50;6.07;;;3.40;;
12112;SDS011;6120;52.250;8.478;2024-02-26T08:11:17;9.32;;;4.25;;
12112;SDS011;6120;52.250;8.478;2024-02-26T08:13:43;6.70;;;4.15;;
12112;SDS011;6120;52.250;8.478;2024-02-26T08:16:10;7.18;;;3.50;;
12112;SDS011;6120;52.250;8.478;2024-02-26T08:18:38;5.53;;;3.38;;
12112;SDS011;6120;52.250;8.478;2024-02-26T08:21:05;7.80;;;4.38;;
12112;SDS011;6120;52.250;8.478;2024-02-26T08:23:32;24.73;;;12.25;;
12112;SDS011;6120;52.250;8.478;2024-02-26T08:25:59;10.63;;;5.35;;
12112;SDS011;6120;52.250;8.478;2024-02-26T08:28:26;6.15;;;4.13;;
12112;SDS011;6120;52.250;8.478;2024-02-26T08:30:52;6.15;;;3.63;;
12112;SDS011;6120;52.250;8.478;2024-02-26T08:33:19;6.15;;;3.30;;
12112;SDS011;6120;52.250;8.478;2024-02-26T08:35:46;6.15;;;2.97;;
12112;SDS011;6120;52.250;8.478;2024-02-26T08:38:13;7.13;;;3.67;;
12112;SDS011;6120;52.250;8.478;2024-02-26T08:40:41;6.18;;;3.60;;
12112;SDS011;6120;52.250;8.478;2024-02-26T08:43:07;6.72;;;3.67;;
12112;SDS011;6120;52.250;8.478;2024-02-26T08:45:35;6.15;;;3.47;;
12112;SDS011;6120;52.250;8.478;2024-02-26T08:48:02;8.73;;;3.20;;
12112;SDS011;6120;52.250;8.478;2024-02-26T08:50:29;6.10;;;3.50;;
12112;SDS011;6120;52.250;8.478;2024-02-26T08:52:56;6.30;;;3.92;;
12112;SDS011;6120;52.250;8.478;2024-02-26T08:55:22;6.60;;;3.33;;
12112;SDS011;6120;52.250;8.478;2024-02-26T08:57:49;6.43;;;3.70;;
12112;SDS011;6120;52.250;8.478;2024-02-26T09:00:16;6.72;;;3.90;;
12112;SDS011;6120;52.250;8.478;2024-02-26T09:02:47;6.32;;;3.60;;
12112;SDS011;6120;52.250;8.478;2024-02-26T09:05:14;7.97;;;4.22;;
12112;SDS011;6120;52.250;8.478;2024-02-26T09:07:41;6.13;;;3.83;;
12112;SDS011;6120;52.250;8.478;2024-02-26T09:10:07;6.60;;;4.00;;
12112;SDS011;6120;52.250;8.478;2024-02-26T09:12:37;9.25;;;4.60;;
12112;SDS011;6120;52.250;8.478;2024-02-26T09:15:04;6.28;;;3.75;;
12112;SDS011;6120;52.250;8.478;2024-02-26T09:17:32;6.78;;;3.90;;
12112;SDS011;6120;52.250;8.478;2024-02-26T09:19:59;7.57;;;3.75;;
12112;SDS011;6120;52.250;8.478;2024-02-26T09:22:26;6.07;;;3.45;;
12112;SDS011;6120;52.250;8.478;2024-02-26T09:24:53;6.30;;;3.40;;
12112;SDS011;6120;52.250;8.478;2024-02-26T09:27:20;8.55;;;3.92;;
12112;SDS011;6120;52.250;8.478;2024-02-26T09:29:46;5.75;;;3.10;;
12112;SDS011;6120;52.250;8.478;2024-02-26T09:32:13;6.38;;;3.50;;
12112;SDS011;6120;52.250;8.478;2024-02-26T09:34:40;5.03;;;3.20;;
12112;SDS011;6120;52.250;8.478;2024-02-26T09:37:07;6.95;;;3.85;;
12112;SDS011;6120;52.250;8.478;2024-02-26T09:39:46;6.45;;;3.33;;
12112;SDS011;6120;52.250;8.478;2024-02-26T09:42:13;6.32;;;3.75;;
12112;SDS011;6120;52.250;8.478;2024-02-26T09:44:40;6.30;;;3.25;;
12112;SDS011;6120;52.250;8.478;2024-02-26T09:47:11;6.22;;;2.88;;
12112;SDS011;6120;52.250;8.478;2024-02-26T09:49:43;5.57;;;3.25;;
12112;SDS011;6120;52.250;8.478;2024-02-26T09:52:11;4.50;;;2.75;;
12112;SDS011;6120;52.250;8.478;2024-02-26T09:54:38;4.85;;;2.80;;
12112;SDS011;6120;52.250;8.478;2024-02-26T09:57:05;5.85;;;3.10;;
12112;SDS011;6120;52.250;8.478;2024-02-26T09:59:41;7.88;;;2.70;;
12112;SDS011;6120;52.250;8.478;2024-02-26T10:02:12;5.07;;;2.80;;
12112;SDS011;6120;52.250;8.478;2024-02-26T10:04:39;5.53;;;2.78;;
12112;SDS011;6120;52.250;8.478;2024-02-26T10:07:11;4.93;;;2.70;;
12112;SDS011;6120;52.250;8.478;2024-02-26T10:09:39;6.50;;;2.90;;
12112;SDS011;6120;52.250;8.478;2024-02-26T10:12:07;5.95;;;2.97;;
12112;SDS011;6120;52.250;8.478;2024-02-26T10:14:36;4.20;;;2.80;;
12112;SDS011;6120;52.250;8.478;2024-02-26T10:17:04;4.75;;;2.80;;
12112;SDS011;6120;52.250;8.478;2024-02-26T10:19:35;7.38;;;4.43;;
12112;SDS011;6120;52.250;8.478;2024-02-26T10:22:04;6.18;;;3.28;;
12112;SDS011;6120;52.250;8.478;2024-02-26T10:24:32;7.70;;;5.13;;
12112;SDS011;6120;52.250;8.478;2024-02-26T10:27:01;7.25;;;4.07;;
12112;SDS011;6120;52.250;8.478;2024-02-26T10:29:28;13.65;;;10.15;;
12112;SDS011;6120;52.250;8.478;2024-02-26T10:31:55;8.88;;;4.97;;
12112;SDS011;6120;52.250;8.478;2024-02-26T10:34:22;4.63;;;2.85;;
12112;SDS011;6120;52.250;8.478;2024-02-26T10:36:49;3.40;;;2.33;;
12112;SDS011;6120;52.250;8.478;2024-02-26T10:39:20;7.88;;;3.15;;
12112;SDS011;6120;52.250;8.478;2024-02-26T10:41:48;4.22;;;2.58;;
12112;SDS011;6120;52.250;8.478;2024-02-26T10:44:15;4.63;;;2.20;;
12112;SDS011;6120;52.250;8.478;2024-02-26T10:46:44;3.25;;;2.20;;
12112;SDS011;6120;52.250;8.478;2024-02-26T10:49:14;3.28;;;2.05;;
12112;SDS011;6120;52.250;8.478;2024-02-26T10:51:45;5.13;;;2.33;;
12112;SDS011;6120;52.250;8.478;2024-02-26T10:54:14;4.43;;;2.75;;
12112;SDS011;6120;52.250;8.478;2024-02-26T10:56:42;5.05;;;2.30;;
12112;SDS011;6120;52.250;8.478;2024-02-26T10:59:10;3.45;;;2.33;;
12112;SDS011;6120;52.250;8.478;2024-02-26T11:01:37;4.53;;;2.30;;
12112;SDS011;6120;52.250;8.478;2024-02-26T11:04:04;4.53;;;2.37;;
12112;SDS011;6120;52.250;8.478;2024-02-26T11:06:32;3.42;;;2.15;;
12112;SDS011;6120;52.250;8.478;2024-02-26T11:09:01;5.15;;;2.25;;
12112;SDS011;6120;52.250;8.478;2024-02-26T11:11:30;4.18;;;2.10;;
12112;SDS011;6120;52.250;8.478;2024-02-26T11:13:58;4.68;;;2.20;;
12112;SDS011;6120;52.250;8.478;2024-02-26T11:16:25;6.32;;;2.55;;
12112;SDS011;6120;52.250;8.478;2024-02-26T11:18:52;4.38;;;2.10;;
12112;SDS011;6120;52.250;8.478;2024-02-26T11:21:21;3.15;;;2.10;;
12112;SDS011;6120;52.250;8.478;2024-02-26T11:24:05;4.30;;;1.83;;
12112;SDS011;6120;52.250;8.478;2024-02-26T11:26:35;3.97;;;2.08;;
12112;SDS011;6120;52.250;8.478;2024-02-26T11:29:04;3.95;;;2.40;;
12112;SDS011;6120;52.250;8.478;2024-02-26T11:31:31;5.20;;;2.38;;
12112;SDS011;6120;52.250;8.478;2024-02-26T11:34:02;4.88;;;1.92;;
12112;SDS011;6120;52.250;8.478;2024-02-26T11:36:29;5.47;;;1.88;;
12112;SDS011;6120;52.250;8.478;2024-02-26T11:38:56;5.22;;;2.17;;
12112;SDS011;6120;52.250;8.478;2024-02-26T11:41:23;3.45;;;1.85;;
12112;SDS011;6120;52.250;8.478;2024-02-26T11:43:57;4.72;;;2.45;;
12112;SDS011;6120;52.250;8.478;2024-02-26T11:46:42;2.97;;;2.00;;
12112;SDS011;6120;52.250;8.478;2024-02-26T11:51:53;4.13;;;2.13;;
12112;SDS011;6120;52.250;8.478;2024-02-26T11:57:25;3.30;;;1.98;;
12112;SDS011;6120;52.250;8.478;2024-02-26T12:00:10;3.70;;;2.13;;
12112;SDS011;6120;52.250;8.478;2024-02-26T12:02:41;4.18;;;2.35;;
12112;SDS011;6120;52.250;8.478;2024-02-26T12:05:11;4.05;;;2.38;;
12112;SDS011;6120;52.250;8.478;2024-02-26T12:07:40;5.93;;;2.88;;
12112;SDS011;6120;52.250;8.478;2024-02-26T12:12:49;8.38;;;3.38;;
12112;SDS011;6120;52.250;8.478;2024-02-26T12:15:16;5.50;;;2.60;;
12112;SDS011;6120;52.250;8.478;2024-02-26T12:17:43;4.28;;;1.92;;
12112;SDS011;6120;52.250;8.478;2024-02-26T12:20:14;4.75;;;1.80;;
12112;SDS011;6120;52.250;8.478;2024-02-26T12:22:44;3.20;;;2.03;;
12112;SDS011;6120;52.250;8.478;2024-02-26T12:25:14;2.92;;;1.80;;
12112;SDS011;6120;52.250;8.478;2024-02-26T12:27:40;4.57;;;2.15;;
12112;SDS011;6120;52.250;8.478;2024-02-26T12:30:08;3.70;;;2.13;;
12112;SDS011;6120;52.250;8.478;2024-02-26T12:32:35;6.25;;;3.38;;
12112;SDS011;6120;52.250;8.478;2024-02-26T12:35:02;5.57;;;2.20;;
12112;SDS011;6120;52.250;8.478;2024-02-26T12:37:30;4.30;;;2.20;;
12112;SDS011;6120;52.250;8.478;2024-02-26T12:39:57;4.07;;;1.80;;
12112;SDS011;6120;52.250;8.478;2024-02-26T12:42:23;3.47;;;1.90;;
12112;SDS011;6120;52.250;8.478;2024-02-26T12:44:51;3.95;;;2.17;;
12112;SDS011;6120;52.250;8.478;2024-02-26T12:47:19;2.50;;;1.52;;
12112;SDS011;6120;52.250;8.478;2024-02-26T12:49:48;3.20;;;1.80;;
12112;SDS011;6120;52.250;8.478;2024-02-26T12:52:16;3.80;;;2.20;;
12112;SDS011;6120;52.250;8.478;2024-02-26T12:54:43;2.78;;;1.90;;
12112;SDS011;6120;52.250;8.478;2024-02-26T12:57:10;2.92;;;2.00;;
12112;SDS011;6120;52.250;8.478;2024-02-26T12:59:37;3.40;;;2.00;;
12112;SDS011;6120;52.250;8.478;2024-02-26T13:02:04;5.68;;;1.70;;
12112;SDS011;6120;52.250;8.478;2024-02-26T13:04:33;5.15;;;2.20;;
12112;SDS011;6120;52.250;8.478;2024-02-26T13:07:03;3.92;;;1.80;;
12112;SDS011;6120;52.250;8.478;2024-02-26T13:09:34;2.85;;;1.80;;
12112;SDS011;6120;52.250;8.478;2024-02-26T13:12:07;3.30;;;1.98;;
12112;SDS011;6120;52.250;8.478;2024-02-26T13:14:34;3.80;;;1.92;;
12112;SDS011;6120;52.250;8.478;2024-02-26T13:17:01;4.30;;;1.90;;
12112;SDS011;6120;52.250;8.478;2024-02-26T13:19:29;4.03;;;1.70;;
12112;SDS011;6120;52.250;8.478;2024-02-26T13:21:56;3.72;;;2.00;;
12112;SDS011;6120;52.250;8.478;2024-02-26T13:24:29;3.83;;;2.00;;
12112;SDS011;6120;52.250;8.478;2024-02-26T13:26:57;7.97;;;1.45;;
12112;SDS011;6120;52.250;8.478;2024-02-26T13:29:24;3.63;;;1.63;;
12112;SDS011;6120;52.250;8.478;2024-02-26T13:31:54;4.18;;;1.48;;
12112;SDS011;6120;52.250;8.478;2024-02-26T13:34:26;3.55;;;1.70;;
12112;SDS011;6120;52.250;8.478;2024-02-26T13:36:54;4.03;;;1.77;;
12112;SDS011;6120;52.250;8.478;2024-02-26T13:39:22;2.67;;;1.67;;
12112;SDS011;6120;52.250;8.478;2024-02-26T13:41:52;2.38;;;1.60;;
12112;SDS011;6120;52.250;8.478;2024-02-26T13:44:19;3.72;;;1.63;;
12112;SDS011;6120;52.250;8.478;2024-02-26T13:46:47;3.53;;;1.85;;
12112;SDS011;6120;52.250;8.478;2024-02-26T13:49:14;2.95;;;1.77;;
12112;SDS011;6120;52.250;8.478;2024-02-26T13:51:41;3.40;;;1.80;;
12112;SDS011;6120;52.250;8.478;2024-02-26T13:54:08;5.77;;;1.70;;
12112;SDS011;6120;52.250;8.478;2024-02-26T13:56:40;5.45;;;1.80;;
12112;SDS011;6120;52.250;8.478;2024-02-26T13:59:08;2.75;;;1.65;;
12112;SDS011;6120;52.250;8.478;2024-02-26T14:01:35;2.90;;;1.50;;
12112;SDS011;6120;52.250;8.478;2024-02-26T14:04:02;3.58;;;1.70;;
12112;SDS011;6120;52.250;8.478;2024-02-26T14:06:30;3.20;;;1.77;;
12112;SDS011;6120;52.250;8.478;2024-02-26T14:08:57;3.75;;;1.52;;
12112;SDS011;6120;52.250;8.478;2024-02-26T14:11:25;4.23;;;1.80;;
12112;SDS011;6120;52.250;8.478;2024-02-26T14:13:52;4.05;;;1.92;;
12112;SDS011;6120;52.250;8.478;2024-02-26T14:16:19;3.28;;;1.50;;
12112;SDS011;6120;52.250;8.478;2024-02-26T14:18:46;4.70;;;1.60;;
12112;SDS011;6120;52.250;8.478;2024-02-26T14:21:14;5.40;;;2.15;;
12112;SDS011;6120;52.250;8.478;2024-02-26T14:23:41;3.28;;;1.90;;
12112;SDS011;6120;52.250;8.478;2024-02-26T14:26:09;3.05;;;1.75;;
12112;SDS011;6120;52.250;8.478;2024-02-26T14:28:35;3.47;;;1.60;;
12112;SDS011;6120;52.250;8.478;2024-02-26T14:31:02;4.15;;;2.17;;
12112;SDS011;6120;52.250;8.478;2024-02-26T14:33:32;3.63;;;1.92;;
12112;SDS011;6120;52.250;8.478;2024-02-26T14:35:59;8.93;;;3.40;;
12112;SDS011;6120;52.250;8.478;2024-02-26T14:38:26;18.02;;;11.82;;
12112;SDS011;6120;52.250;8.478;2024-02-26T14:40:52;33.28;;;12.57;;
12112;SDS011;6120;52.250;8.478;2024-02-26T14:43:19;7.07;;;3.40;;
12112;SDS011;6120;52.250;8.478;2024-02-26T14:45:46;6.55;;;3.13;;
12112;SDS011;6120;52.250;8.478;2024-02-26T14:48:12;4.28;;;2.25;;
12112;SDS011;6120;52.250;8.478;2024-02-26T14:50:40;6.28;;;2.80;;
12112;SDS011;6120;52.250;8.478;2024-02-26T14:53:07;3.63;;;2.35;;
12112;SDS011;6120;52.250;8.478;2024-02-26T14:55:33;3.42;;;2.30;;
12112;SDS011;6120;52.250;8.478;2024-02-26T14:58:01;4.13;;;2.42;;
12112;SDS011;6120;52.250;8.478;2024-02-26T15:00:28;3.22;;;1.90;;
12112;SDS011;6120;52.250;8.478;2024-02-26T15:02:55;2.40;;;1.70;;
12112;SDS011;6120;52.250;8.478;2024-02-26T15:05:22;3.47;;;2.13;;
12112;SDS011;6120;52.250;8.478;2024-02-26T15:07:50;3.25;;;1.63;;
12112;SDS011;6120;52.250;8.478;2024-02-26T15:10:17;3.00;;;1.60;;
12112;SDS011;6120;52.250;8.478;2024-02-26T15:12:45;3.03;;;1.87;;